Appleton, Wisconsin
Current Conditions -  °F | °C
As of 3:45 PM on Wednesday 22 Oct 2014 (Local Time) from KATW Reporting Station
Scattered Clouds Scattered Clouds  
Wind Chill: 54°   Ceiling: Unl
Heat Index: 54°   Visibility: 10mi
Dew Point: 37°   Wind: 10mph
Humidity: 54%   Direction: 130°SE
Pressure: 30.28"   Gusts: NA
Location:  44.26°N, 88.42°W
Report Text: KATW 222045Z 13009KT 10SM SCT070 12/03 A3028
Loading
Personal Weather Stations






























Interactive Weather Map New forecast layout! Learn more

10-Day Weather Forecast

Advertisements
Track Severe Weather on mobile